Scottsville, Vermont
Current Conditions -  °F | °C
As of 6:35 PM on Monday 22 Dec 2014 (Local Time) from KRUT Reporting Station
Overcast Overcast  
Wind Chill: 26°   Ceiling: 4300
Heat Index: 34°   Visibility: 10mi
Dew Point: 30°   Wind: 9mph
Humidity: 87%   Direction: 120°ESE
Pressure: 30.28"   Gusts: NA
Location:  43.3492°N, 72.9643°W
Report Text: KRUT 222335Z 12008KT 10SM OVC043 01/M01 A3028 RMK AO1
Loading
Personal Weather Stations






























Interactive Weather Map New forecast layout! Learn more

10-Day Weather Forecast

Advertisements
Track Severe Weather on mobile